sensor_id;sensor_type;location;lat;lon;timestamp;pressure;altitude;pressure_sealevel;temperature;humidity
8697;BME280;4385;48.848;8.924;2022-08-19T00:01:30;96994.78;;;25.43;100.00
8697;BME280;4385;48.848;8.924;2022-08-19T00:03:57;96989.63;;;25.43;100.00
8697;BME280;4385;48.848;8.924;2022-08-19T00:06:23;96994.78;;;25.43;100.00
8697;BME280;4385;48.848;8.924;2022-08-19T00:08:48;97000.75;;;25.44;100.00
8697;BME280;4385;48.848;8.924;2022-08-19T00:11:16;96992.19;;;25.43;100.00
8697;BME280;4385;48.848;8.924;2022-08-19T00:13:41;96994.78;;;25.43;100.00
8697;BME280;4385;48.848;8.924;2022-08-19T00:16:07;96990.44;;;25.44;100.00
8697;BME280;4385;48.848;8.924;2022-08-19T00:18:33;96980.94;;;25.44;100.00
8697;BME280;4385;48.848;8.924;2022-08-19T00:20:59;96991.28;;;25.44;100.00
8697;BME280;4385;48.848;8.924;2022-08-19T00:23:25;96993.84;;;25.44;100.00
8697;BME280;4385;48.848;8.924;2022-08-19T00:25:50;96990.44;;;25.44;100.00
8697;BME280;4385;48.848;8.924;2022-08-19T00:28:17;96992.09;;;25.45;100.00
8697;BME280;4385;48.848;8.924;2022-08-19T00:30:42;96983.44;;;25.46;100.00
8697;BME280;4385;48.848;8.924;2022-08-19T00:33:08;96980.94;;;25.44;100.00
8697;BME280;4385;48.848;8.924;2022-08-19T00:35:33;96979.22;;;25.45;100.00
8697;BME280;4385;48.848;8.924;2022-08-19T00:37:59;96977.53;;;25.44;100.00
8697;BME280;4385;48.848;8.924;2022-08-19T00:40:25;96974.97;;;25.44;100.00
8697;BME280;4385;48.848;8.924;2022-08-19T00:42:50;96965.47;;;25.44;100.00
8697;BME280;4385;48.848;8.924;2022-08-19T00:45:22;96966.31;;;25.45;100.00
8697;BME280;4385;48.848;8.924;2022-08-19T00:47:48;96952.59;;;25.44;100.00
8697;BME280;4385;48.848;8.924;2022-08-19T00:50:17;96950.00;;;25.44;100.00
8697;BME280;4385;48.848;8.924;2022-08-19T00:52:45;96954.31;;;25.44;100.00
8697;BME280;4385;48.848;8.924;2022-08-19T00:55:18;96960.31;;;25.44;100.00
8697;BME280;4385;48.848;8.924;2022-08-19T00:57:50;96961.16;;;25.45;100.00
8697;BME280;4385;48.848;8.924;2022-08-19T01:00:19;96960.31;;;25.44;100.00
8697;BME280;4385;48.848;8.924;2022-08-19T01:02:44;96955.16;;;25.44;100.00
8697;BME280;4385;48.848;8.924;2022-08-19T01:05:16;96962.91;;;25.44;100.00
8697;BME280;4385;48.848;8.924;2022-08-19T01:07:44;96966.41;;;25.43;100.00
8697;BME280;4385;48.848;8.924;2022-08-19T01:10:12;96968.16;;;25.43;100.00
8697;BME280;4385;48.848;8.924;2022-08-19T01:12:39;96968.06;;;25.44;100.00
8697;BME280;4385;48.848;8.924;2022-08-19T01:15:07;96973.22;;;25.44;100.00
8697;BME280;4385;48.848;8.924;2022-08-19T01:17:34;96970.63;;;25.44;100.00
8697;BME280;4385;48.848;8.924;2022-08-19T01:20:03;96969.81;;;25.44;100.00
8697;BME280;4385;48.848;8.924;2022-08-19T01:22:43;96970.81;;;25.41;100.00
8697;BME280;4385;48.848;8.924;2022-08-19T01:25:09;96969.16;;;25.40;100.00
8697;BME280;4385;48.848;8.924;2022-08-19T01:27:40;96964.00;;;25.40;100.00
8697;BME280;4385;48.848;8.924;2022-08-19T01:30:07;96958.00;;;25.39;100.00
8697;BME280;4385;48.848;8.924;2022-08-19T01:32:33;96958.84;;;25.40;100.00
8697;BME280;4385;48.848;8.924;2022-08-19T01:34:58;96960.59;;;25.39;100.00
8697;BME280;4385;48.848;8.924;2022-08-19T01:37:27;96957.94;;;25.41;100.00
8697;BME280;4385;48.848;8.924;2022-08-19T01:39:52;96959.66;;;25.40;100.00
8697;BME280;4385;48.848;8.924;2022-08-19T01:42:18;96959.66;;;25.40;100.00
8697;BME280;4385;48.848;8.924;2022-08-19T01:44:45;96956.19;;;25.42;100.00
8697;BME280;4385;48.848;8.924;2022-08-19T01:47:10;96963.84;;;25.43;100.00
8697;BME280;4385;48.848;8.924;2022-08-19T01:49:36;96963.84;;;25.43;100.00
8697;BME280;4385;48.848;8.924;2022-08-19T01:52:03;96965.47;;;25.44;100.00
8697;BME280;4385;48.848;8.924;2022-08-19T01:54:28;96960.31;;;25.44;100.00
8697;BME280;4385;48.848;8.924;2022-08-19T01:57:06;96960.22;;;25.46;100.00
8697;BME280;4385;48.848;8.924;2022-08-19T01:59:32;96956.00;;;25.45;100.00
8697;BME280;4385;48.848;8.924;2022-08-19T02:01:58;96954.13;;;25.47;100.00
8697;BME280;4385;48.848;8.924;2022-08-19T02:04:24;96960.13;;;25.47;100.00
8697;BME280;4385;48.848;8.924;2022-08-19T02:06:50;96961.78;;;25.48;100.00
8697;BME280;4385;48.848;8.924;2022-08-19T02:09:15;96964.38;;;25.48;100.00
8697;BME280;4385;48.848;8.924;2022-08-19T02:11:41;96976.38;;;25.49;100.00
8697;BME280;4385;48.848;8.924;2022-08-19T02:14:07;96968.63;;;25.49;100.00
8697;BME280;4385;48.848;8.924;2022-08-19T02:16:34;96978.84;;;25.51;100.00
8697;BME280;4385;48.848;8.924;2022-08-19T02:19:00;96975.44;;;25.50;100.00
8697;BME280;4385;48.848;8.924;2022-08-19T02:21:25;96963.47;;;25.49;100.00
8697;BME280;4385;48.848;8.924;2022-08-19T02:23:51;96959.22;;;25.48;100.00
8697;BME280;4385;48.848;8.924;2022-08-19T02:26:17;96966.94;;;25.48;100.00
8697;BME280;4385;48.848;8.924;2022-08-19T02:28:43;96960.97;;;25.48;100.00
8697;BME280;4385;48.848;8.924;2022-08-19T02:31:14;96968.72;;;25.48;100.00
8697;BME280;4385;48.848;8.924;2022-08-19T02:33:40;96952.41;;;25.47;100.00
8697;BME280;4385;48.848;8.924;2022-08-19T02:36:06;96954.13;;;25.47;100.00
8697;BME280;4385;48.848;8.924;2022-08-19T02:38:32;96956.00;;;25.45;100.00
8697;BME280;4385;48.848;8.924;2022-08-19T02:41:07;96954.31;;;25.44;100.00
8697;BME280;4385;48.848;8.924;2022-08-19T02:43:35;96953.50;;;25.43;100.00
8697;BME280;4385;48.848;8.924;2022-08-19T02:46:20;96946.69;;;25.42;100.00
8697;BME280;4385;48.848;8.924;2022-08-19T02:48:51;96945.88;;;25.42;100.00
8697;BME280;4385;48.848;8.924;2022-08-19T02:51:20;96942.44;;;25.41;100.00
8697;BME280;4385;48.848;8.924;2022-08-19T02:53:46;96947.59;;;25.41;100.00
8697;BME280;4385;48.848;8.924;2022-08-19T02:56:11;96941.53;;;25.42;100.00
8697;BME280;4385;48.848;8.924;2022-08-19T02:58:37;96951.84;;;25.42;100.00
8697;BME280;4385;48.848;8.924;2022-08-19T03:01:03;96938.03;;;25.43;100.00
8697;BME280;4385;48.848;8.924;2022-08-19T03:03:28;96943.19;;;25.43;100.00
8697;BME280;4385;48.848;8.924;2022-08-19T03:06:09;96946.59;;;25.44;100.00
8697;BME280;4385;48.848;8.924;2022-08-19T03:08:36;96948.34;;;25.43;100.00
8697;BME280;4385;48.848;8.924;2022-08-19T03:11:02;96955.16;;;25.44;100.00
8697;BME280;4385;48.848;8.924;2022-08-19T03:13:28;96964.63;;;25.44;100.00
8697;BME280;4385;48.848;8.924;2022-08-19T03:15:53;96960.31;;;25.44;100.00
8697;BME280;4385;48.848;8.924;2022-08-19T03:18:19;96955.34;;;25.41;100.00
8697;BME280;4385;48.848;8.924;2022-08-19T03:20:47;96952.94;;;25.38;100.00
8697;BME280;4385;48.848;8.924;2022-08-19T03:23:13;96952.84;;;25.39;100.00
8697;BME280;4385;48.848;8.924;2022-08-19T03:25:41;96955.53;;;25.38;100.00
8697;BME280;4385;48.848;8.924;2022-08-19T03:28:11;96960.78;;;25.36;100.00
8697;BME280;4385;48.848;8.924;2022-08-19T03:30:38;96957.34;;;25.36;100.00
8697;BME280;4385;48.848;8.924;2022-08-19T03:33:05;96967.75;;;25.34;100.00
8697;BME280;4385;48.848;8.924;2022-08-19T03:35:31;96967.69;;;25.36;100.00
8697;BME280;4385;48.848;8.924;2022-08-19T03:37:58;96964.28;;;25.35;100.00
8697;BME280;4385;48.848;8.924;2022-08-19T03:40:24;96956.63;;;25.34;100.00
8697;BME280;4385;48.848;8.924;2022-08-19T03:42:50;96953.22;;;25.33;100.00
8697;BME280;4385;48.848;8.924;2022-08-19T03:45:15;96954.06;;;25.34;100.00
8697;BME280;4385;48.848;8.924;2022-08-19T03:47:41;96954.78;;;25.36;100.00
8697;BME280;4385;48.848;8.924;2022-08-19T03:50:06;96956.56;;;25.35;100.00
8697;BME280;4385;48.848;8.924;2022-08-19T03:52:33;96960.03;;;25.34;100.00
8697;BME280;4385;48.848;8.924;2022-08-19T03:54:59;96958.28;;;25.35;100.00
8697;BME280;4385;48.848;8.924;2022-08-19T03:57:24;96955.72;;;25.35;100.00
8697;BME280;4385;48.848;8.924;2022-08-19T03:59:49;96964.38;;;25.34;100.00
8697;BME280;4385;48.848;8.924;2022-08-19T04:02:15;96968.59;;;25.35;100.00
8697;BME280;4385;48.848;8.924;2022-08-19T04:04:42;96966.97;;;25.34;100.00
8697;BME280;4385;48.848;8.924;2022-08-19T04:07:09;96973.84;;;25.33;100.00
8697;BME280;4385;48.848;8.924;2022-08-19T04:09:36;96975.50;;;25.34;100.00
8697;BME280;4385;48.848;8.924;2022-08-19T04:12:02;96981.50;;;25.35;100.00
8697;BME280;4385;48.848;8.924;2022-08-19T04:14:31;96979.84;;;25.34;100.00
8697;BME280;4385;48.848;8.924;2022-08-19T04:16:58;96980.75;;;25.33;100.00
8697;BME280;4385;48.848;8.924;2022-08-19T04:19:25;96978.16;;;25.33;100.00
8697;BME280;4385;48.848;8.924;2022-08-19T04:21:53;96981.69;;;25.32;100.00
8697;BME280;4385;48.848;8.924;2022-08-19T04:24:19;96978.16;;;25.33;100.00
8697;BME280;4385;48.848;8.924;2022-08-19T04:26:46;96978.16;;;25.33;100.00
8697;BME280;4385;48.848;8.924;2022-08-19T04:29:16;96985.91;;;25.33;100.00
8697;BME280;4385;48.848;8.924;2022-08-19T04:31:42;96973.19;;;25.30;100.00
8697;BME280;4385;48.848;8.924;2022-08-19T04:34:11;96971.53;;;25.28;100.00
8697;BME280;4385;48.848;8.924;2022-08-19T04:36:38;96972.47;;;25.27;100.00
8697;BME280;4385;48.848;8.924;2022-08-19T04:39:09;96974.13;;;25.28;100.00
8697;BME280;4385;48.848;8.924;2022-08-19T04:41:35;96974.13;;;25.28;100.00
8697;BME280;4385;48.848;8.924;2022-08-19T04:44:20;96970.69;;;25.28;100.00
8697;BME280;4385;48.848;8.924;2022-08-19T04:46:47;96969.91;;;25.27;100.00
8697;BME280;4385;48.848;8.924;2022-08-19T04:49:15;96975.06;;;25.27;100.00
8697;BME280;4385;48.848;8.924;2022-08-19T04:51:44;96976.69;;;25.28;100.00
8697;BME280;4385;48.848;8.924;2022-08-19T04:54:10;96975.88;;;25.28;100.00
8697;BME280;4385;48.848;8.924;2022-08-19T04:56:36;96981.59;;;25.33;100.00
8697;BME280;4385;48.848;8.924;2022-08-19T04:59:02;96984.16;;;25.33;100.00
8697;BME280;4385;48.848;8.924;2022-08-19T05:01:32;96978.16;;;25.33;100.00
8697;BME280;4385;48.848;8.924;2022-08-19T05:04:02;96983.31;;;25.33;100.00
8697;BME280;4385;48.848;8.924;2022-08-19T05:06:28;96978.34;;;25.30;100.00
8697;BME280;4385;48.848;8.924;2022-08-19T05:08:54;96985.19;;;25.31;100.00
8697;BME280;4385;48.848;8.924;2022-08-19T05:11:22;96986.09;;;25.30;100.00
8697;BME280;4385;48.848;8.924;2022-08-19T05:13:49;96991.25;;;25.30;100.00
8697;BME280;4385;48.848;8.924;2022-08-19T05:16:18;96998.06;;;25.31;100.00
8697;BME280;4385;48.848;8.924;2022-08-19T05:18:43;96995.50;;;25.31;100.00
8697;BME280;4385;48.848;8.924;2022-08-19T05:21:29;97005.81;;;25.31;100.00
8697;BME280;4385;48.848;8.924;2022-08-19T05:24:14;97014.28;;;25.33;100.00
8697;BME280;4385;48.848;8.924;2022-08-19T05:26:42;97015.94;;;25.34;100.00
8697;BME280;4385;48.848;8.924;2022-08-19T05:29:12;97021.09;;;25.34;100.00
8697;BME280;4385;48.848;8.924;2022-08-19T05:31:37;97034.81;;;25.34;100.00
8697;BME280;4385;48.848;8.924;2022-08-19T05:34:04;97037.38;;;25.34;100.00
8697;BME280;4385;48.848;8.924;2022-08-19T05:36:35;97037.38;;;25.34;100.00
8697;BME280;4385;48.848;8.924;2022-08-19T05:39:02;97043.38;;;25.35;100.00
8697;BME280;4385;48.848;8.924;2022-08-19T05:41:27;97054.53;;;25.35;100.00
8697;BME280;4385;48.848;8.924;2022-08-19T05:44:00;97063.09;;;25.36;100.00
8697;BME280;4385;48.848;8.924;2022-08-19T05:46:26;97070.81;;;25.36;100.00
8697;BME280;4385;48.848;8.924;2022-08-19T05:48:51;97075.97;;;25.36;100.00
8697;BME280;4385;48.848;8.924;2022-08-19T05:51:17;97075.16;;;25.35;100.00
8697;BME280;4385;48.848;8.924;2022-08-19T05:53:42;97062.38;;;25.34;100.00
8697;BME280;4385;48.848;8.924;2022-08-19T05:56:12;97064.00;;;25.35;100.00
8697;BME280;4385;48.848;8.924;2022-08-19T05:58:38;97070.81;;;25.36;100.00
8697;BME280;4385;48.848;8.924;2022-08-19T06:01:09;97069.16;;;25.35;100.00
8697;BME280;4385;48.848;8.924;2022-08-19T06:03:34;97067.44;;;25.35;100.00
8697;BME280;4385;48.848;8.924;2022-08-19T06:06:01;97064.00;;;25.35;100.00
8697;BME280;4385;48.848;8.924;2022-08-19T06:08:27;97056.09;;;25.38;100.00
8697;BME280;4385;48.848;8.924;2022-08-19T06:10:53;97061.94;;;25.42;100.00
8697;BME280;4385;48.848;8.924;2022-08-19T06:13:19;97061.00;;;25.43;100.00
8697;BME280;4385;48.848;8.924;2022-08-19T06:15:44;97058.50;;;25.41;100.00
8697;BME280;4385;48.848;8.924;2022-08-19T06:18:12;97055.09;;;25.40;100.00
8697;BME280;4385;48.848;8.924;2022-08-19T06:20:38;97057.56;;;25.42;100.00
8697;BME280;4385;48.848;8.924;2022-08-19T06:23:03;97059.25;;;25.43;100.00
8697;BME280;4385;48.848;8.924;2022-08-19T06:25:28;97058.22;;;25.46;100.00
8697;BME280;4385;48.848;8.924;2022-08-19T06:27:54;97056.50;;;25.46;100.00
8697;BME280;4385;48.848;8.924;2022-08-19T06:30:19;97058.16;;;25.47;100.00
8697;BME280;4385;48.848;8.924;2022-08-19T06:32:44;97056.31;;;25.49;100.00
8697;BME280;4385;48.848;8.924;2022-08-19T06:35:10;97054.63;;;25.48;100.00
8697;BME280;4385;48.848;8.924;2022-08-19T06:37:36;97053.00;;;25.47;100.00
8697;BME280;4385;48.848;8.924;2022-08-19T06:40:03;97048.84;;;25.45;100.00
8697;BME280;4385;48.848;8.924;2022-08-19T06:42:28;97048.19;;;25.41;100.00
8697;BME280;4385;48.848;8.924;2022-08-19T06:44:54;97058.59;;;25.39;100.00
8697;BME280;4385;48.848;8.924;2022-08-19T06:47:20;97053.34;;;25.41;100.00
8697;BME280;4385;48.848;8.924;2022-08-19T06:49:46;97056.84;;;25.40;100.00
8697;BME280;4385;48.848;8.924;2022-08-19T06:52:12;97049.13;;;25.40;100.00
8697;BME280;4385;48.848;8.924;2022-08-19T06:54:38;97054.28;;;25.40;100.00
8697;BME280;4385;48.848;8.924;2022-08-19T06:57:05;97065.31;;;25.42;100.00
8697;BME280;4385;48.848;8.924;2022-08-19T06:59:31;97065.31;;;25.42;100.00
8697;BME280;4385;48.848;8.924;2022-08-19T07:02:02;97068.63;;;25.44;100.00
8697;BME280;4385;48.848;8.924;2022-08-19T07:04:30;97062.56;;;25.45;100.00
8697;BME280;4385;48.848;8.924;2022-08-19T07:07:11;97061.66;;;25.46;100.00
8697;BME280;4385;48.848;8.924;2022-08-19T07:09:40;97064.22;;;25.46;100.00
8697;BME280;4385;48.848;8.924;2022-08-19T07:12:07;97073.63;;;25.47;100.00
8697;BME280;4385;48.848;8.924;2022-08-19T07:14:33;97074.47;;;25.48;100.00
8697;BME280;4385;48.848;8.924;2022-08-19T07:17:03;97064.97;;;25.48;100.00
8697;BME280;4385;48.848;8.924;2022-08-19T07:19:29;97081.28;;;25.49;100.00
8697;BME280;4385;48.848;8.924;2022-08-19T07:21:55;97080.34;;;25.50;100.00
8697;BME280;4385;48.848;8.924;2022-08-19T07:24:23;97079.53;;;25.49;100.00
8697;BME280;4385;48.848;8.924;2022-08-19T07:26:51;97088.91;;;25.50;100.00
8697;BME280;4385;48.848;8.924;2022-08-19T07:29:17;97083.69;;;25.52;100.00
8697;BME280;4385;48.848;8.924;2022-08-19T07:31:43;97082.75;;;25.53;100.00
8697;BME280;4385;48.848;8.924;2022-08-19T07:34:12;97084.44;;;25.54;100.00
8697;BME280;4385;48.848;8.924;2022-08-19T07:36:40;97086.06;;;25.55;100.00
8697;BME280;4385;48.848;8.924;2022-08-19T07:39:09;97083.41;;;25.57;100.00
8697;BME280;4385;48.848;8.924;2022-08-19T07:41:36;97082.38;;;25.59;100.00
8697;BME280;4385;48.848;8.924;2022-08-19T07:44:03;97083.22;;;25.60;100.00
8697;BME280;4385;48.848;8.924;2022-08-19T07:46:31;97084.06;;;25.60;100.00
8697;BME280;4385;48.848;8.924;2022-08-19T07:48:57;97084.00;;;25.62;100.00
8697;BME280;4385;48.848;8.924;2022-08-19T07:51:22;97080.50;;;25.63;100.00
8697;BME280;4385;48.848;8.924;2022-08-19T07:53:48;97085.56;;;25.64;100.00
8697;BME280;4385;48.848;8.924;2022-08-19T07:56:17;97083.84;;;25.65;100.00
8697;BME280;4385;48.848;8.924;2022-08-19T07:58:44;97076.72;;;25.69;100.00
8697;BME280;4385;48.848;8.924;2022-08-19T08:01:13;97079.22;;;25.70;100.00
8697;BME280;4385;48.848;8.924;2022-08-19T08:03:38;97075.72;;;25.71;100.00
8697;BME280;4385;48.848;8.924;2022-08-19T08:06:23;97083.28;;;25.74;100.00
8697;BME280;4385;48.848;8.924;2022-08-19T08:09:08;97094.31;;;25.76;100.00
8697;BME280;4385;48.848;8.924;2022-08-19T08:11:40;97089.00;;;25.80;100.00
8697;BME280;4385;48.848;8.924;2022-08-19T08:14:07;97094.16;;;25.80;100.00
8697;BME280;4385;48.848;8.924;2022-08-19T08:16:36;97095.84;;;25.81;100.00
8697;BME280;4385;48.848;8.924;2022-08-19T08:19:04;97096.56;;;25.83;100.00
8697;BME280;4385;48.848;8.924;2022-08-19T08:21:30;97101.81;;;25.81;100.00
8697;BME280;4385;48.848;8.924;2022-08-19T08:23:56;97106.06;;;25.82;100.00
8697;BME280;4385;48.848;8.924;2022-08-19T08:26:22;97101.81;;;25.81;100.00
8697;BME280;4385;48.848;8.924;2022-08-19T08:28:47;97106.97;;;25.81;100.00
8697;BME280;4385;48.848;8.924;2022-08-19T08:31:13;97095.66;;;25.84;100.00
8697;BME280;4385;48.848;8.924;2022-08-19T08:33:39;97099.13;;;25.83;100.00
8697;BME280;4385;48.848;8.924;2022-08-19T08:36:08;97097.38;;;25.83;100.00
8697;BME280;4385;48.848;8.924;2022-08-19T08:38:34;97106.59;;;25.87;100.00
8697;BME280;4385;48.848;8.924;2022-08-19T08:41:09;97107.44;;;25.88;100.00
8697;BME280;4385;48.848;8.924;2022-08-19T08:43:39;97107.25;;;25.91;100.00
8697;BME280;4385;48.848;8.924;2022-08-19T08:48:41;97107.16;;;25.93;100.00
8697;BME280;4385;48.848;8.924;2022-08-19T08:51:15;97107.06;;;25.94;100.00
8697;BME280;4385;48.848;8.924;2022-08-19T08:53:45;97101.72;;;25.97;100.00
8697;BME280;4385;48.848;8.924;2022-08-19T08:56:12;97110.22;;;25.99;100.00
8697;BME280;4385;48.848;8.924;2022-08-19T08:59:02;97112.81;;;25.99;100.00
8697;BME280;4385;48.848;8.924;2022-08-19T09:01:28;97109.38;;;25.99;100.00
8697;BME280;4385;48.848;8.924;2022-08-19T09:03:54;97112.81;;;25.99;100.00
8697;BME280;4385;48.848;8.924;2022-08-19T09:06:38;97118.69;;;26.01;100.00
8697;BME280;4385;48.848;8.924;2022-08-19T09:09:22;97113.53;;;26.01;100.00
8697;BME280;4385;48.848;8.924;2022-08-19T09:14:49;97104.88;;;26.02;100.00
8697;BME280;4385;48.848;8.924;2022-08-19T09:17:17;97104.88;;;26.02;100.00
8697;BME280;4385;48.848;8.924;2022-08-19T09:22:27;97105.59;;;26.05;100.00
8697;BME280;4385;48.848;8.924;2022-08-19T09:24:54;97113.25;;;26.06;100.00
8697;BME280;4385;48.848;8.924;2022-08-19T09:27:20;97116.66;;;26.07;100.00
8697;BME280;4385;48.848;8.924;2022-08-19T09:29:46;97113.25;;;26.06;100.00
8697;BME280;4385;48.848;8.924;2022-08-19T09:32:13;97113.34;;;26.05;100.00
8697;BME280;4385;48.848;8.924;2022-08-19T09:34:39;97112.44;;;26.06;100.00
8697;BME280;4385;48.848;8.924;2022-08-19T09:37:04;97114.09;;;26.07;100.00
8697;BME280;4385;48.848;8.924;2022-08-19T09:39:30;97116.09;;;26.01;100.00
8697;BME280;4385;48.848;8.924;2022-08-19T09:41:56;97113.88;;;25.95;100.00
8697;BME280;4385;48.848;8.924;2022-08-19T09:44:21;97127.06;;;25.90;100.00
8697;BME280;4385;48.848;8.924;2022-08-19T09:46:46;97121.28;;;25.87;100.00
8697;BME280;4385;48.848;8.924;2022-08-19T09:49:12;97125.88;;;25.82;100.00
8697;BME280;4385;48.848;8.924;2022-08-19T09:51:37;97122.63;;;25.78;100.00
8697;BME280;4385;48.848;8.924;2022-08-19T09:54:03;97124.56;;;25.74;100.00
8697;BME280;4385;48.848;8.924;2022-08-19T09:56:29;97120.50;;;25.70;100.00
8697;BME280;4385;48.848;8.924;2022-08-19T09:58:57;97120.66;;;25.67;100.00
8697;BME280;4385;48.848;8.924;2022-08-19T10:01:24;97126.00;;;25.64;100.00
8697;BME280;4385;48.848;8.924;2022-08-19T10:03:53;97127.88;;;25.62;100.00
8697;BME280;4385;48.848;8.924;2022-08-19T10:06:20;97126.34;;;25.58;100.00
8697;BME280;4385;48.848;8.924;2022-08-19T10:08:46;97125.59;;;25.56;100.00
8697;BME280;4385;48.848;8.924;2022-08-19T10:11:12;97120.53;;;25.54;100.00
8697;BME280;4385;48.848;8.924;2022-08-19T10:13:39;97128.38;;;25.52;100.00
8697;BME280;4385;48.848;8.924;2022-08-19T10:16:09;97123.28;;;25.51;100.00
8697;BME280;4385;48.848;8.924;2022-08-19T10:18:36;97129.34;;;25.50;100.00
8697;BME280;4385;48.848;8.924;2022-08-19T10:21:08;97125.22;;;25.47;100.00
8697;BME280;4385;48.848;8.924;2022-08-19T10:23:38;97124.44;;;25.45;100.00
8697;BME280;4385;48.848;8.924;2022-08-19T10:26:05;97121.88;;;25.45;100.00
8697;BME280;4385;48.848;8.924;2022-08-19T10:28:32;97115.91;;;25.45;100.00
8697;BME280;4385;48.848;8.924;2022-08-19T10:30:57;97116.00;;;25.43;100.00
8697;BME280;4385;48.848;8.924;2022-08-19T10:33:24;97121.25;;;25.42;100.00
8697;BME280;4385;48.848;8.924;2022-08-19T10:35:59;97127.22;;;25.42;100.00
8697;BME280;4385;48.848;8.924;2022-08-19T10:38:24;97125.56;;;25.41;100.00
8697;BME280;4385;48.848;8.924;2022-08-19T10:40:50;97128.13;;;25.41;100.00
8697;BME280;4385;48.848;8.924;2022-08-19T10:43:15;97119.66;;;25.39;100.00
8697;BME280;4385;48.848;8.924;2022-08-19T10:45:41;97115.50;;;25.36;100.00
8697;BME280;4385;48.848;8.924;2022-08-19T10:48:07;97105.28;;;25.35;100.00
8697;BME280;4385;48.848;8.924;2022-08-19T10:50:32;97101.94;;;25.33;100.00
8697;BME280;4385;48.848;8.924;2022-08-19T10:53:16;97091.81;;;25.30;100.00
8697;BME280;4385;48.848;8.924;2022-08-19T10:55:41;97085.00;;;25.28;100.00
8697;BME280;4385;48.848;8.924;2022-08-19T10:58:25;97074.78;;;25.27;100.00
8697;BME280;4385;48.848;8.924;2022-08-19T11:00:56;97066.19;;;25.26;100.00
8697;BME280;4385;48.848;8.924;2022-08-19T11:03:22;97074.78;;;25.27;100.00
8697;BME280;4385;48.848;8.924;2022-08-19T11:06:02;97070.53;;;25.26;100.00
8697;BME280;4385;48.848;8.924;2022-08-19T11:08:27;97079.16;;;25.25;100.00
8697;BME280;4385;48.848;8.924;2022-08-19T11:10:54;97080.00;;;25.25;100.00
8697;BME280;4385;48.848;8.924;2022-08-19T11:13:22;97084.31;;;25.25;100.00
8697;BME280;4385;48.848;8.924;2022-08-19T11:15:56;97079.34;;;25.22;100.00
8697;BME280;4385;48.848;8.924;2022-08-19T11:18:21;97080.19;;;25.22;100.00
8697;BME280;4385;48.848;8.924;2022-08-19T11:20:47;97073.19;;;25.24;100.00
8697;BME280;4385;48.848;8.924;2022-08-19T11:23:12;97075.78;;;25.24;100.00
8697;BME280;4385;48.848;8.924;2022-08-19T11:25:38;97065.56;;;25.23;100.00
8697;BME280;4385;48.848;8.924;2022-08-19T11:28:04;97081.13;;;25.21;100.00
8697;BME280;4385;48.848;8.924;2022-08-19T11:30:30;97079.44;;;25.20;100.00
8697;BME280;4385;48.848;8.924;2022-08-19T11:32:55;97074.44;;;25.17;100.00
8697;BME280;4385;48.848;8.924;2022-08-19T11:35:20;97076.13;;;25.18;100.00
8697;BME280;4385;48.848;8.924;2022-08-19T11:37:47;97080.53;;;25.16;100.00
8697;BME280;4385;48.848;8.924;2022-08-19T11:40:12;97079.78;;;25.14;100.00
8697;BME280;4385;48.848;8.924;2022-08-19T11:42:37;97085.78;;;25.14;100.00
8697;BME280;4385;48.848;8.924;2022-08-19T11:45:25;97091.84;;;25.13;100.00
8697;BME280;4385;48.848;8.924;2022-08-19T11:47:51;97087.50;;;25.14;100.00
8697;BME280;4385;48.848;8.924;2022-08-19T11:50:17;97092.66;;;25.14;100.00
8697;BME280;4385;48.848;8.924;2022-08-19T11:52:43;97086.78;;;25.12;100.00
8697;BME280;4385;48.848;8.924;2022-08-19T11:55:10;97084.22;;;25.12;100.00
8697;BME280;4385;48.848;8.924;2022-08-19T11:57:35;97092.84;;;25.11;100.00
8697;BME280;4385;48.848;8.924;2022-08-19T12:00:02;97080.88;;;25.10;100.00
8697;BME280;4385;48.848;8.924;2022-08-19T12:02:28;97088.63;;;25.10;100.00
8697;BME280;4385;48.848;8.924;2022-08-19T12:04:53;97081.72;;;25.10;100.00
8697;BME280;4385;48.848;8.924;2022-08-19T12:07:19;97078.31;;;25.10;100.00
8697;BME280;4385;48.848;8.924;2022-08-19T12:09:44;97087.69;;;25.11;100.00
8697;BME280;4385;48.848;8.924;2022-08-19T12:12:09;97080.88;;;25.10;100.00
8697;BME280;4385;48.848;8.924;2022-08-19T12:14:35;97084.38;;;25.09;100.00
8697;BME280;4385;48.848;8.924;2022-08-19T12:17:00;97076.72;;;25.07;100.00
8697;BME280;4385;48.848;8.924;2022-08-19T12:19:27;97072.47;;;25.06;100.00
8697;BME280;4385;48.848;8.924;2022-08-19T12:21:58;97067.41;;;25.05;100.00
8697;BME280;4385;48.848;8.924;2022-08-19T12:24:25;97064.91;;;25.03;100.00
8697;BME280;4385;48.848;8.924;2022-08-19T12:26:50;97063.25;;;25.02;100.00
8697;BME280;4385;48.848;8.924;2022-08-19T12:29:16;97049.53;;;25.01;100.00
8697;BME280;4385;48.848;8.924;2022-08-19T12:31:41;97059.84;;;25.01;100.00
8697;BME280;4385;48.848;8.924;2022-08-19T12:34:06;97041.81;;;25.01;100.00
8697;BME280;4385;48.848;8.924;2022-08-19T12:36:32;97051.31;;;25.01;100.00
8697;BME280;4385;48.848;8.924;2022-08-19T12:38:58;97062.50;;;25.00;100.00
8697;BME280;4385;48.848;8.924;2022-08-19T12:41:25;97062.44;;;25.01;100.00
8697;BME280;4385;48.848;8.924;2022-08-19T12:43:50;97061.63;;;25.01;100.00
8697;BME280;4385;48.848;8.924;2022-08-19T12:46:17;97052.13;;;25.01;100.00
8697;BME280;4385;48.848;8.924;2022-08-19T12:48:43;97057.28;;;25.01;100.00
8697;BME280;4385;48.848;8.924;2022-08-19T12:51:13;97057.28;;;25.01;100.00
8697;BME280;4385;48.848;8.924;2022-08-19T12:53:40;97060.59;;;25.03;100.00
8697;BME280;4385;48.848;8.924;2022-08-19T12:56:07;97058.94;;;25.02;100.00
8697;BME280;4385;48.848;8.924;2022-08-19T12:58:32;97067.41;;;25.05;100.00
8697;BME280;4385;48.848;8.924;2022-08-19T13:00:59;97068.34;;;25.03;100.00
8697;BME280;4385;48.848;8.924;2022-08-19T13:03:25;97071.75;;;25.04;100.00
8697;BME280;4385;48.848;8.924;2022-08-19T13:05:54;97067.41;;;25.05;100.00
8697;BME280;4385;48.848;8.924;2022-08-19T13:08:20;97076.06;;;25.03;100.00
8697;BME280;4385;48.848;8.924;2022-08-19T13:10:45;97065.75;;;25.03;100.00
8697;BME280;4385;48.848;8.924;2022-08-19T13:13:12;97066.59;;;25.04;100.00
8697;BME280;4385;48.848;8.924;2022-08-19T13:15:39;97085.44;;;25.05;100.00
8697;BME280;4385;48.848;8.924;2022-08-19T13:18:07;97082.88;;;25.05;100.00
8697;BME280;4385;48.848;8.924;2022-08-19T13:20:35;97069.91;;;25.06;100.00